Aérodrome :
LOGIN :

S'inscrire | Disclaimer

   EN    FR    IT 

 










Légende :    VFR   VFR Marginal   IFR   IFR Intensif   IFR Très Intensif
Visi : 
Plafond : 
>= 8 km
>= 3000ft
5 à 8 km
1000 à 3000 ft
1500m à 5 km
500 à 1000 ft
800 à 1500m
200 à 500 ft
< 800m
< 200 ft
Symboles :   Orages  Brouillard  Fortes neiges  Fortes précipitations  Vent > 20 kt
SIGMETs :   Divers  Orages  Givrage  Turbulence  Onde Orograph.  Cendres Volcan.






- Altitude de l'aérodrome : 13 ft
- Code IATA : OST


EBOS - Oostend bruges Int.

DERNIER METAR :
  • 031920Z 02011KT 9999 BKN011 14/11 Q1005 BECMG SCT012

METARs EXPIRÉS :
  • 031850Z 01010KT 9999 BKN011 14/11 Q1005 BECMG SCT012
  • 031820Z 01010KT 340V040 9999 SCT010 14/11 Q1005 TEMPO BKN010
  • 031750Z 36011KT 9999 FEW010 15/11 Q1005 NOSIG
  • 031720Z 01011KT 340V040 9999 FEW010 15/11 Q1005 NOSIG

TAF TAF EBOS
Valide du 03 à 18h jusqu'au 05 à 00h UTC


031706Z 0318/0424 36012KT 9999 SCT012
TEMPO 0405/0412 4500 RA SHRA BKN008
TEMPO 0410/0415 35017G27KT



MET'MAP, la Météo Aéronautique d'un coup d'oeil ! - Copyright ORBIFLY Décembre 2007 - Disclaimer

ORBIFLY MET'MAP TEAM :

Programmation & Développement : Alexandra Zaïnal
Sur une idée originale de : Baudouin d'Aumeries
Assistance à la programmation : Marc-Olivier Méhu
Soutien technique & logistique : Manuel Goepfert

Contact : metmap@orbifly.com




SOURCES & CREDITS :

   NOAA